PILOTS ONLINE: 567    ATC ONLINE: 152

KSOP

Moore County Airport

Location

City Pinehurst/Southern Pines
Country  United States
Latitude 35° 14' 14" N
Longitude 79° 23' 28" W
Elevation 455 ft
Type Small Airport

Map

Weather

METAR
2014/08/22 19:15
KSOP 221915Z AUTO 00000KT 10SM CLR 35/18 A2998 RMK AO1
TAF
No TAF available

Runways

05/23 5503 ft / 150 ft
14/32 1999 ft / 100 ft

Outbound flights

Callsign Flying to Pilot ATD/STD ETA Aircraft

Inbound flights

Callsign Flying from Pilot ATD ETA Aircraft